sensor_id;sensor_type;location;lat;lon;timestamp;temperature;humidity
22540;DHT22;11436;50.860;4.334;2022-11-25T00:00:04;12.30;99.90
22540;DHT22;11436;50.860;4.334;2022-11-25T00:02:30;12.30;99.90
22540;DHT22;11436;50.860;4.334;2022-11-25T00:04:55;12.20;99.90
22540;DHT22;11436;50.860;4.334;2022-11-25T00:07:21;12.20;99.90
22540;DHT22;11436;50.860;4.334;2022-11-25T00:09:47;12.20;99.90
22540;DHT22;11436;50.860;4.334;2022-11-25T00:12:13;12.10;99.90
22540;DHT22;11436;50.860;4.334;2022-11-25T00:14:38;12.00;99.90
22540;DHT22;11436;50.860;4.334;2022-11-25T00:17:04;11.90;99.90
22540;DHT22;11436;50.860;4.334;2022-11-25T00:19:30;11.80;99.90
22540;DHT22;11436;50.860;4.334;2022-11-25T00:21:55;11.70;99.90
22540;DHT22;11436;50.860;4.334;2022-11-25T00:24:21;11.60;99.90
22540;DHT22;11436;50.860;4.334;2022-11-25T00:26:47;11.60;99.90
22540;DHT22;11436;50.860;4.334;2022-11-25T00:29:13;11.40;99.90
22540;DHT22;11436;50.860;4.334;2022-11-25T00:31:39;11.30;99.90
22540;DHT22;11436;50.860;4.334;2022-11-25T00:34:05;11.20;99.90
22540;DHT22;11436;50.860;4.334;2022-11-25T00:36:33;11.00;99.90
22540;DHT22;11436;50.860;4.334;2022-11-25T00:41:28;10.30;99.90
22540;DHT22;11436;50.860;4.334;2022-11-25T00:44:17;10.10;99.90
22540;DHT22;11436;50.860;4.334;2022-11-25T00:47:08;9.90;99.90
22540;DHT22;11436;50.860;4.334;2022-11-25T00:49:35;9.80;99.90
22540;DHT22;11436;50.860;4.334;2022-11-25T00:52:02;9.80;99.90
22540;DHT22;11436;50.860;4.334;2022-11-25T00:54:28;9.70;99.90
22540;DHT22;11436;50.860;4.334;2022-11-25T00:56:54;9.70;99.90
22540;DHT22;11436;50.860;4.334;2022-11-25T00:59:20;9.70;99.90
22540;DHT22;11436;50.860;4.334;2022-11-25T01:01:46;9.70;99.90
22540;DHT22;11436;50.860;4.334;2022-11-25T01:04:12;9.70;99.90
22540;DHT22;11436;50.860;4.334;2022-11-25T01:06:38;9.70;99.90
22540;DHT22;11436;50.860;4.334;2022-11-25T01:09:05;9.70;99.90
22540;DHT22;11436;50.860;4.334;2022-11-25T01:11:31;9.70;99.90
22540;DHT22;11436;50.860;4.334;2022-11-25T01:13:57;9.70;99.90
22540;DHT22;11436;50.860;4.334;2022-11-25T01:16:23;9.60;99.90
22540;DHT22;11436;50.860;4.334;2022-11-25T01:18:50;9.60;99.90
22540;DHT22;11436;50.860;4.334;2022-11-25T01:21:19;9.70;99.90
22540;DHT22;11436;50.860;4.334;2022-11-25T01:23:45;9.70;99.90
22540;DHT22;11436;50.860;4.334;2022-11-25T01:26:14;9.70;99.90
22540;DHT22;11436;50.860;4.334;2022-11-25T01:28:40;9.70;99.90
22540;DHT22;11436;50.860;4.334;2022-11-25T01:31:08;9.70;99.90
22540;DHT22;11436;50.860;4.334;2022-11-25T01:33:34;9.70;99.90
22540;DHT22;11436;50.860;4.334;2022-11-25T01:36:07;9.70;99.90
22540;DHT22;11436;50.860;4.334;2022-11-25T01:38:33;9.70;99.90
22540;DHT22;11436;50.860;4.334;2022-11-25T01:41:00;9.80;99.90
22540;DHT22;11436;50.860;4.334;2022-11-25T01:43:27;9.80;99.90
22540;DHT22;11436;50.860;4.334;2022-11-25T01:46:06;9.90;99.90
22540;DHT22;11436;50.860;4.334;2022-11-25T01:48:57;10.00;99.90
22540;DHT22;11436;50.860;4.334;2022-11-25T01:51:58;9.90;99.90
22540;DHT22;11436;50.860;4.334;2022-11-25T01:54:28;9.90;99.90
22540;DHT22;11436;50.860;4.334;2022-11-25T01:57:12;9.70;99.90
22540;DHT22;11436;50.860;4.334;2022-11-25T01:59:43;9.70;99.90
22540;DHT22;11436;50.860;4.334;2022-11-25T02:02:10;9.60;99.90
22540;DHT22;11436;50.860;4.334;2022-11-25T02:04:38;9.70;99.90
22540;DHT22;11436;50.860;4.334;2022-11-25T02:07:10;9.70;99.90
22540;DHT22;11436;50.860;4.334;2022-11-25T02:09:41;9.70;99.90
22540;DHT22;11436;50.860;4.334;2022-11-25T02:12:07;9.80;99.90
22540;DHT22;11436;50.860;4.334;2022-11-25T02:14:33;9.80;99.90
22540;DHT22;11436;50.860;4.334;2022-11-25T02:17:00;9.90;99.90
22540;DHT22;11436;50.860;4.334;2022-11-25T02:19:59;10.00;99.90
22540;DHT22;11436;50.860;4.334;2022-11-25T02:25:14;10.00;99.90
22540;DHT22;11436;50.860;4.334;2022-11-25T02:27:42;10.00;99.90
22540;DHT22;11436;50.860;4.334;2022-11-25T02:30:09;10.00;99.90
22540;DHT22;11436;50.860;4.334;2022-11-25T02:32:34;10.00;99.90
22540;DHT22;11436;50.860;4.334;2022-11-25T02:37:46;9.90;99.90
22540;DHT22;11436;50.860;4.334;2022-11-25T02:40:13;9.90;99.90
22540;DHT22;11436;50.860;4.334;2022-11-25T02:42:39;9.80;99.90
22540;DHT22;11436;50.860;4.334;2022-11-25T02:45:11;9.80;99.90
22540;DHT22;11436;50.860;4.334;2022-11-25T02:47:38;9.80;99.90
22540;DHT22;11436;50.860;4.334;2022-11-25T02:50:04;9.80;99.90
22540;DHT22;11436;50.860;4.334;2022-11-25T02:52:30;9.80;99.90
22540;DHT22;11436;50.860;4.334;2022-11-25T02:54:56;9.80;99.90
22540;DHT22;11436;50.860;4.334;2022-11-25T02:57:21;9.90;99.90
22540;DHT22;11436;50.860;4.334;2022-11-25T02:59:47;9.80;99.90
22540;DHT22;11436;50.860;4.334;2022-11-25T03:02:13;9.80;99.90
22540;DHT22;11436;50.860;4.334;2022-11-25T03:04:38;9.80;99.90
22540;DHT22;11436;50.860;4.334;2022-11-25T03:07:04;9.70;99.90
22540;DHT22;11436;50.860;4.334;2022-11-25T03:09:30;9.70;99.90
22540;DHT22;11436;50.860;4.334;2022-11-25T03:11:56;9.60;99.90
22540;DHT22;11436;50.860;4.334;2022-11-25T03:14:40;9.60;99.90
22540;DHT22;11436;50.860;4.334;2022-11-25T03:17:05;9.60;99.90
22540;DHT22;11436;50.860;4.334;2022-11-25T03:19:31;9.50;99.90
22540;DHT22;11436;50.860;4.334;2022-11-25T03:21:57;9.60;99.90
22540;DHT22;11436;50.860;4.334;2022-11-25T03:24:22;9.60;99.90
22540;DHT22;11436;50.860;4.334;2022-11-25T03:26:48;9.60;99.90
22540;DHT22;11436;50.860;4.334;2022-11-25T03:29:14;9.50;99.90
22540;DHT22;11436;50.860;4.334;2022-11-25T03:31:40;9.60;99.90
22540;DHT22;11436;50.860;4.334;2022-11-25T03:34:05;9.60;99.90
22540;DHT22;11436;50.860;4.334;2022-11-25T03:36:31;9.60;99.90
22540;DHT22;11436;50.860;4.334;2022-11-25T03:38:56;9.60;99.90
22540;DHT22;11436;50.860;4.334;2022-11-25T03:41:22;9.60;99.90
22540;DHT22;11436;50.860;4.334;2022-11-25T03:43:48;9.50;99.90
22540;DHT22;11436;50.860;4.334;2022-11-25T03:46:14;9.50;99.90
22540;DHT22;11436;50.860;4.334;2022-11-25T03:48:40;9.50;99.90
22540;DHT22;11436;50.860;4.334;2022-11-25T03:51:05;9.40;99.90
22540;DHT22;11436;50.860;4.334;2022-11-25T03:53:31;9.40;99.90
22540;DHT22;11436;50.860;4.334;2022-11-25T03:55:57;9.60;99.90
22540;DHT22;11436;50.860;4.334;2022-11-25T03:58:22;9.60;99.90
22540;DHT22;11436;50.860;4.334;2022-11-25T04:00:48;9.60;99.90
22540;DHT22;11436;50.860;4.334;2022-11-25T04:03:14;9.60;99.90
22540;DHT22;11436;50.860;4.334;2022-11-25T04:05:40;9.50;99.90
22540;DHT22;11436;50.860;4.334;2022-11-25T04:10:51;9.50;99.90
22540;DHT22;11436;50.860;4.334;2022-11-25T04:13:17;9.60;99.90
22540;DHT22;11436;50.860;4.334;2022-11-25T04:15:48;9.50;99.90
22540;DHT22;11436;50.860;4.334;2022-11-25T04:18:14;9.40;99.90
22540;DHT22;11436;50.860;4.334;2022-11-25T04:20:41;9.50;99.90
22540;DHT22;11436;50.860;4.334;2022-11-25T04:23:07;9.50;99.90
22540;DHT22;11436;50.860;4.334;2022-11-25T04:25:34;9.50;99.90
22540;DHT22;11436;50.860;4.334;2022-11-25T04:28:01;9.50;99.90
22540;DHT22;11436;50.860;4.334;2022-11-25T04:30:27;9.50;99.90
22540;DHT22;11436;50.860;4.334;2022-11-25T04:32:53;9.50;99.90
22540;DHT22;11436;50.860;4.334;2022-11-25T04:35:19;9.50;99.90
22540;DHT22;11436;50.860;4.334;2022-11-25T04:37:45;9.60;99.90
22540;DHT22;11436;50.860;4.334;2022-11-25T04:40:11;9.60;99.90
22540;DHT22;11436;50.860;4.334;2022-11-25T04:42:37;9.60;99.90
22540;DHT22;11436;50.860;4.334;2022-11-25T04:45:15;9.60;99.90
22540;DHT22;11436;50.860;4.334;2022-11-25T04:47:41;9.50;99.90
22540;DHT22;11436;50.860;4.334;2022-11-25T04:50:15;9.60;99.90
22540;DHT22;11436;50.860;4.334;2022-11-25T04:52:43;9.60;99.90
22540;DHT22;11436;50.860;4.334;2022-11-25T04:55:09;9.70;99.90
22540;DHT22;11436;50.860;4.334;2022-11-25T04:57:35;9.70;99.90
22540;DHT22;11436;50.860;4.334;2022-11-25T05:00:00;9.70;99.90
22540;DHT22;11436;50.860;4.334;2022-11-25T05:02:27;9.70;99.90
22540;DHT22;11436;50.860;4.334;2022-11-25T05:04:55;9.70;99.90
22540;DHT22;11436;50.860;4.334;2022-11-25T05:07:22;9.70;99.90
22540;DHT22;11436;50.860;4.334;2022-11-25T05:09:48;9.70;99.90
22540;DHT22;11436;50.860;4.334;2022-11-25T05:12:17;9.70;99.90
22540;DHT22;11436;50.860;4.334;2022-11-25T05:14:43;9.70;99.90
22540;DHT22;11436;50.860;4.334;2022-11-25T05:17:13;9.50;99.90
22540;DHT22;11436;50.860;4.334;2022-11-25T05:19:39;9.50;99.90
22540;DHT22;11436;50.860;4.334;2022-11-25T05:22:08;9.50;99.90
22540;DHT22;11436;50.860;4.334;2022-11-25T05:24:34;9.50;99.90
22540;DHT22;11436;50.860;4.334;2022-11-25T05:27:00;9.50;99.90
22540;DHT22;11436;50.860;4.334;2022-11-25T05:29:25;9.50;99.90
22540;DHT22;11436;50.860;4.334;2022-11-25T05:31:51;9.50;99.90
22540;DHT22;11436;50.860;4.334;2022-11-25T05:34:17;9.40;99.90
22540;DHT22;11436;50.860;4.334;2022-11-25T05:36:43;9.40;99.90
22540;DHT22;11436;50.860;4.334;2022-11-25T05:39:09;9.40;99.90
22540;DHT22;11436;50.860;4.334;2022-11-25T05:41:35;9.30;99.90
22540;DHT22;11436;50.860;4.334;2022-11-25T05:44:00;9.30;99.90
22540;DHT22;11436;50.860;4.334;2022-11-25T05:46:26;9.30;99.90
22540;DHT22;11436;50.860;4.334;2022-11-25T05:48:53;9.30;99.90
22540;DHT22;11436;50.860;4.334;2022-11-25T05:51:19;9.30;99.90
22540;DHT22;11436;50.860;4.334;2022-11-25T05:53:46;9.30;99.90
22540;DHT22;11436;50.860;4.334;2022-11-25T05:56:11;9.30;99.90
22540;DHT22;11436;50.860;4.334;2022-11-25T05:58:37;9.30;99.90
22540;DHT22;11436;50.860;4.334;2022-11-25T06:01:11;9.20;99.90
22540;DHT22;11436;50.860;4.334;2022-11-25T06:03:37;9.30;99.90
22540;DHT22;11436;50.860;4.334;2022-11-25T06:06:04;9.30;99.90
22540;DHT22;11436;50.860;4.334;2022-11-25T06:08:30;9.20;99.90
22540;DHT22;11436;50.860;4.334;2022-11-25T06:10:56;9.10;99.90
22540;DHT22;11436;50.860;4.334;2022-11-25T06:13:22;9.00;99.90
22540;DHT22;11436;50.860;4.334;2022-11-25T06:15:48;9.00;99.90
22540;DHT22;11436;50.860;4.334;2022-11-25T06:18:15;9.00;99.90
22540;DHT22;11436;50.860;4.334;2022-11-25T06:20:41;9.10;99.90
22540;DHT22;11436;50.860;4.334;2022-11-25T06:23:07;9.20;99.90
22540;DHT22;11436;50.860;4.334;2022-11-25T06:25:33;9.20;99.90
22540;DHT22;11436;50.860;4.334;2022-11-25T06:27:59;9.10;99.90
22540;DHT22;11436;50.860;4.334;2022-11-25T06:30:26;9.10;99.90
22540;DHT22;11436;50.860;4.334;2022-11-25T06:32:53;9.00;99.90
22540;DHT22;11436;50.860;4.334;2022-11-25T06:35:19;9.00;99.90
22540;DHT22;11436;50.860;4.334;2022-11-25T06:37:45;9.00;99.90
22540;DHT22;11436;50.860;4.334;2022-11-25T06:40:11;9.10;99.90
22540;DHT22;11436;50.860;4.334;2022-11-25T06:42:38;9.10;99.90
22540;DHT22;11436;50.860;4.334;2022-11-25T06:45:05;9.00;99.90
22540;DHT22;11436;50.860;4.334;2022-11-25T06:47:31;9.00;99.90
22540;DHT22;11436;50.860;4.334;2022-11-25T06:49:57;9.00;99.90
22540;DHT22;11436;50.860;4.334;2022-11-25T06:52:22;9.00;99.90
22540;DHT22;11436;50.860;4.334;2022-11-25T06:54:50;9.00;99.90
22540;DHT22;11436;50.860;4.334;2022-11-25T06:57:18;9.00;99.90
22540;DHT22;11436;50.860;4.334;2022-11-25T06:59:44;8.90;99.90
22540;DHT22;11436;50.860;4.334;2022-11-25T07:02:13;8.90;99.90
22540;DHT22;11436;50.860;4.334;2022-11-25T07:04:38;8.90;99.90
22540;DHT22;11436;50.860;4.334;2022-11-25T07:07:05;8.90;99.90
22540;DHT22;11436;50.860;4.334;2022-11-25T07:09:31;8.80;99.90
22540;DHT22;11436;50.860;4.334;2022-11-25T07:11:56;8.80;99.90
22540;DHT22;11436;50.860;4.334;2022-11-25T07:14:22;8.80;99.90
22540;DHT22;11436;50.860;4.334;2022-11-25T07:16:48;8.80;99.90
22540;DHT22;11436;50.860;4.334;2022-11-25T07:19:15;8.80;99.90
22540;DHT22;11436;50.860;4.334;2022-11-25T07:21:42;8.80;99.90
22540;DHT22;11436;50.860;4.334;2022-11-25T07:24:11;8.70;99.90
22540;DHT22;11436;50.860;4.334;2022-11-25T07:26:39;8.70;99.90
22540;DHT22;11436;50.860;4.334;2022-11-25T07:29:09;8.70;99.90
22540;DHT22;11436;50.860;4.334;2022-11-25T07:31:39;8.70;99.90
22540;DHT22;11436;50.860;4.334;2022-11-25T07:34:12;8.60;99.90
22540;DHT22;11436;50.860;4.334;2022-11-25T07:36:39;8.70;99.90
22540;DHT22;11436;50.860;4.334;2022-11-25T07:39:07;8.60;99.90
22540;DHT22;11436;50.860;4.334;2022-11-25T07:41:36;8.60;99.90
22540;DHT22;11436;50.860;4.334;2022-11-25T07:44:04;8.70;99.90
22540;DHT22;11436;50.860;4.334;2022-11-25T07:46:35;8.70;99.90
22540;DHT22;11436;50.860;4.334;2022-11-25T07:49:07;8.70;99.90
22540;DHT22;11436;50.860;4.334;2022-11-25T07:51:35;8.70;99.90
22540;DHT22;11436;50.860;4.334;2022-11-25T07:54:03;8.80;99.90
22540;DHT22;11436;50.860;4.334;2022-11-25T07:56:30;8.70;99.90
22540;DHT22;11436;50.860;4.334;2022-11-25T07:58:56;8.70;99.90
22540;DHT22;11436;50.860;4.334;2022-11-25T08:01:22;8.80;99.90
22540;DHT22;11436;50.860;4.334;2022-11-25T08:03:49;8.70;99.90
22540;DHT22;11436;50.860;4.334;2022-11-25T08:06:18;8.70;99.90
22540;DHT22;11436;50.860;4.334;2022-11-25T08:08:45;8.70;99.90
22540;DHT22;11436;50.860;4.334;2022-11-25T08:11:17;8.70;99.90
22540;DHT22;11436;50.860;4.334;2022-11-25T08:13:44;8.80;99.90
22540;DHT22;11436;50.860;4.334;2022-11-25T08:16:12;8.90;99.90
22540;DHT22;11436;50.860;4.334;2022-11-25T08:18:38;9.00;99.90
22540;DHT22;11436;50.860;4.334;2022-11-25T08:21:06;9.00;99.90
22540;DHT22;11436;50.860;4.334;2022-11-25T08:23:34;9.00;99.90
22540;DHT22;11436;50.860;4.334;2022-11-25T08:26:11;9.10;99.90
22540;DHT22;11436;50.860;4.334;2022-11-25T08:28:38;9.20;99.90
22540;DHT22;11436;50.860;4.334;2022-11-25T08:31:09;9.20;99.90
22540;DHT22;11436;50.860;4.334;2022-11-25T08:33:34;9.20;99.90
22540;DHT22;11436;50.860;4.334;2022-11-25T08:36:00;9.20;99.90
22540;DHT22;11436;50.860;4.334;2022-11-25T08:38:27;9.20;99.90
22540;DHT22;11436;50.860;4.334;2022-11-25T08:40:53;9.20;99.90
22540;DHT22;11436;50.860;4.334;2022-11-25T08:43:19;9.20;99.90
22540;DHT22;11436;50.860;4.334;2022-11-25T08:45:50;9.20;99.90
22540;DHT22;11436;50.860;4.334;2022-11-25T08:48:17;9.20;99.90
22540;DHT22;11436;50.860;4.334;2022-11-25T08:50:46;9.30;99.90
22540;DHT22;11436;50.860;4.334;2022-11-25T08:53:13;9.30;99.90
22540;DHT22;11436;50.860;4.334;2022-11-25T08:55:38;9.30;99.90
22540;DHT22;11436;50.860;4.334;2022-11-25T08:58:04;9.30;99.90
22540;DHT22;11436;50.860;4.334;2022-11-25T09:00:35;9.30;99.90
22540;DHT22;11436;50.860;4.334;2022-11-25T09:03:01;9.20;99.90
22540;DHT22;11436;50.860;4.334;2022-11-25T09:05:27;9.10;99.90
22540;DHT22;11436;50.860;4.334;2022-11-25T09:07:53;9.10;99.90
22540;DHT22;11436;50.860;4.334;2022-11-25T09:10:18;9.10;99.90
22540;DHT22;11436;50.860;4.334;2022-11-25T09:12:44;9.10;99.90
22540;DHT22;11436;50.860;4.334;2022-11-25T09:15:10;9.20;99.90
22540;DHT22;11436;50.860;4.334;2022-11-25T09:17:36;9.30;99.90
22540;DHT22;11436;50.860;4.334;2022-11-25T09:20:04;9.30;99.90
22540;DHT22;11436;50.860;4.334;2022-11-25T09:22:30;9.30;99.90
22540;DHT22;11436;50.860;4.334;2022-11-25T09:24:56;9.30;99.90
22540;DHT22;11436;50.860;4.334;2022-11-25T09:27:22;9.40;99.90
22540;DHT22;11436;50.860;4.334;2022-11-25T09:29:49;9.30;99.90
22540;DHT22;11436;50.860;4.334;2022-11-25T09:32:15;9.30;99.90
22540;DHT22;11436;50.860;4.334;2022-11-25T09:34:40;9.30;99.90
22540;DHT22;11436;50.860;4.334;2022-11-25T09:37:06;9.30;99.90
22540;DHT22;11436;50.860;4.334;2022-11-25T09:39:32;9.40;99.90
22540;DHT22;11436;50.860;4.334;2022-11-25T09:56:01;9.70;99.90
22540;DHT22;11436;50.860;4.334;2022-11-25T10:01:43;9.70;99.90
22540;DHT22;11436;50.860;4.334;2022-11-25T10:04:14;9.70;99.90
22540;DHT22;11436;50.860;4.334;2022-11-25T10:06:49;9.80;99.90
22540;DHT22;11436;50.860;4.334;2022-11-25T10:09:22;9.90;99.90
22540;DHT22;11436;50.860;4.334;2022-11-25T10:11:49;9.80;99.90
22540;DHT22;11436;50.860;4.334;2022-11-25T10:14:30;9.90;99.90
22540;DHT22;11436;50.860;4.334;2022-11-25T10:22:21;9.80;99.90
22540;DHT22;11436;50.860;4.334;2022-11-25T10:24:48;9.90;99.90
22540;DHT22;11436;50.860;4.334;2022-11-25T10:27:26;10.00;99.90
22540;DHT22;11436;50.860;4.334;2022-11-25T10:30:05;10.00;99.90
22540;DHT22;11436;50.860;4.334;2022-11-25T10:32:39;10.00;99.90
22540;DHT22;11436;50.860;4.334;2022-11-25T10:35:56;10.20;99.90
22540;DHT22;11436;50.860;4.334;2022-11-25T10:37:59;10.20;99.90
22540;DHT22;11436;50.860;4.334;2022-11-25T10:40:25;10.20;99.90
22540;DHT22;11436;50.860;4.334;2022-11-25T10:42:51;10.40;99.90
22540;DHT22;11436;50.860;4.334;2022-11-25T10:45:21;10.40;99.90
22540;DHT22;11436;50.860;4.334;2022-11-25T10:48:24;10.40;99.90
22540;DHT22;11436;50.860;4.334;2022-11-25T10:53:24;10.30;99.90
22540;DHT22;11436;50.860;4.334;2022-11-25T10:56:00;10.30;99.90
22540;DHT22;11436;50.860;4.334;2022-11-25T10:58:35;10.40;99.90
22540;DHT22;11436;50.860;4.334;2022-11-25T11:01:22;10.50;99.90
22540;DHT22;11436;50.860;4.334;2022-11-25T11:04:02;10.60;99.90
22540;DHT22;11436;50.860;4.334;2022-11-25T11:06:38;10.70;99.90
22540;DHT22;11436;50.860;4.334;2022-11-25T11:09:05;10.60;99.90
22540;DHT22;11436;50.860;4.334;2022-11-25T11:11:31;10.70;99.90
22540;DHT22;11436;50.860;4.334;2022-11-25T11:14:12;10.80;99.90
22540;DHT22;11436;50.860;4.334;2022-11-25T11:16:43;10.90;99.90
22540;DHT22;11436;50.860;4.334;2022-11-25T11:19:22;10.90;99.90
22540;DHT22;11436;50.860;4.334;2022-11-25T11:21:49;11.00;99.90
22540;DHT22;11436;50.860;4.334;2022-11-25T11:24:41;11.00;99.90
22540;DHT22;11436;50.860;4.334;2022-11-25T11:27:23;10.90;99.90
22540;DHT22;11436;50.860;4.334;2022-11-25T11:30:15;10.80;99.90
22540;DHT22;11436;50.860;4.334;2022-11-25T11:32:43;10.80;99.90
22540;DHT22;11436;50.860;4.334;2022-11-25T11:35:21;10.80;99.90
22540;DHT22;11436;50.860;4.334;2022-11-25T11:37:57;11.00;99.90
22540;DHT22;11436;50.860;4.334;2022-11-25T11:54:14;10.80;99.90
22540;DHT22;11436;50.860;4.334;2022-11-25T11:56:49;10.80;99.90
22540;DHT22;11436;50.860;4.334;2022-11-25T11:59:44;10.80;99.90
22540;DHT22;11436;50.860;4.334;2022-11-25T12:13:28;11.00;99.90
22540;DHT22;11436;50.860;4.334;2022-11-25T12:16:24;11.00;99.90
22540;DHT22;11436;50.860;4.334;2022-11-25T12:18:59;11.10;99.90
22540;DHT22;11436;50.860;4.334;2022-11-25T12:21:48;11.20;99.90
22540;DHT22;11436;50.860;4.334;2022-11-25T12:24:24;11.20;99.90
22540;DHT22;11436;50.860;4.334;2022-11-25T12:27:05;11.20;99.90
22540;DHT22;11436;50.860;4.334;2022-11-25T12:30:03;11.10;99.90
22540;DHT22;11436;50.860;4.334;2022-11-25T12:43:59;11.10;99.90
22540;DHT22;11436;50.860;4.334;2022-11-25T12:46:48;11.40;99.90
22540;DHT22;11436;50.860;4.334;2022-11-25T12:49:23;11.60;99.90
22540;DHT22;11436;50.860;4.334;2022-11-25T12:52:03;11.80;99.90
22540;DHT22;11436;50.860;4.334;2022-11-25T12:55:02;12.00;99.90
22540;DHT22;11436;50.860;4.334;2022-11-25T13:09:02;12.70;99.90
22540;DHT22;11436;50.860;4.334;2022-11-25T13:15:01;13.00;99.90
22540;DHT22;11436;50.860;4.334;2022-11-25T13:17:38;13.40;99.90
22540;DHT22;11436;50.860;4.334;2022-11-25T13:25:29;12.70;99.90
22540;DHT22;11436;50.860;4.334;2022-11-25T13:27:57;12.60;99.90
22540;DHT22;11436;50.860;4.334;2022-11-25T13:35:45;12.40;99.90
22540;DHT22;11436;50.860;4.334;2022-11-25T13:39:13;12.30;99.90
22540;DHT22;11436;50.860;4.334;2022-11-25T13:43:58;12.30;99.90
22540;DHT22;11436;50.860;4.334;2022-11-25T13:46:45;12.40;99.90
22540;DHT22;11436;50.860;4.334;2022-11-25T13:49:37;12.30;99.90
22540;DHT22;11436;50.860;4.334;2022-11-25T13:54:46;12.20;99.90
22540;DHT22;11436;50.860;4.334;2022-11-25T13:57:20;12.30;99.90
22540;DHT22;11436;50.860;4.334;2022-11-25T14:02:45;12.40;99.90
22540;DHT22;11436;50.860;4.334;2022-11-25T14:24:59;12.30;99.90
22540;DHT22;11436;50.860;4.334;2022-11-25T14:27:25;12.40;99.90
22540;DHT22;11436;50.860;4.334;2022-11-25T14:30:01;12.40;99.90
22540;DHT22;11436;50.860;4.334;2022-11-25T14:32:37;12.20;99.90
22540;DHT22;11436;50.860;4.334;2022-11-25T14:35:09;12.30;99.90
22540;DHT22;11436;50.860;4.334;2022-11-25T14:40:22;12.10;99.90
22540;DHT22;11436;50.860;4.334;2022-11-25T14:42:57;12.20;99.90
22540;DHT22;11436;50.860;4.334;2022-11-25T14:45:31;12.20;99.90
22540;DHT22;11436;50.860;4.334;2022-11-25T14:48:15;12.20;99.90
22540;DHT22;11436;50.860;4.334;2022-11-25T14:50:57;12.20;99.90
22540;DHT22;11436;50.860;4.334;2022-11-25T14:53:23;12.00;99.90
22540;DHT22;11436;50.860;4.334;2022-11-25T14:55:51;11.90;99.90
22540;DHT22;11436;50.860;4.334;2022-11-25T14:58:18;11.80;99.90
22540;DHT22;11436;50.860;4.334;2022-11-25T15:00:54;11.90;99.90
22540;DHT22;11436;50.860;4.334;2022-11-25T15:03:24;11.80;99.90
22540;DHT22;11436;50.860;4.334;2022-11-25T15:06:00;11.90;99.90
22540;DHT22;11436;50.860;4.334;2022-11-25T15:08:27;12.00;99.90
22540;DHT22;11436;50.860;4.334;2022-11-25T15:10:59;12.00;99.90
22540;DHT22;11436;50.860;4.334;2022-11-25T15:13:35;12.00;99.90
22540;DHT22;11436;50.860;4.334;2022-11-25T15:16:13;12.00;99.90
22540;DHT22;11436;50.860;4.334;2022-11-25T15:18:59;11.90;99.90
22540;DHT22;11436;50.860;4.334;2022-11-25T15:21:34;11.80;99.90
22540;DHT22;11436;50.860;4.334;2022-11-25T15:24:02;11.80;99.90
22540;DHT22;11436;50.860;4.334;2022-11-25T15:26:30;11.80;99.90
22540;DHT22;11436;50.860;4.334;2022-11-25T15:29:02;11.80;99.90
22540;DHT22;11436;50.860;4.334;2022-11-25T15:31:31;11.70;99.90
22540;DHT22;11436;50.860;4.334;2022-11-25T15:34:03;11.70;99.90
22540;DHT22;11436;50.860;4.334;2022-11-25T15:36:29;11.70;99.90
22540;DHT22;11436;50.860;4.334;2022-11-25T15:41:46;11.60;99.90
22540;DHT22;11436;50.860;4.334;2022-11-25T15:44:34;11.70;99.90
22540;DHT22;11436;50.860;4.334;2022-11-25T15:47:12;11.70;99.90
22540;DHT22;11436;50.860;4.334;2022-11-25T15:49:40;11.50;99.90
22540;DHT22;11436;50.860;4.334;2022-11-25T15:52:16;11.50;99.90
22540;DHT22;11436;50.860;4.334;2022-11-25T15:54:46;11.50;99.90
22540;DHT22;11436;50.860;4.334;2022-11-25T15:57:27;11.50;99.90
22540;DHT22;11436;50.860;4.334;2022-11-25T16:10:33;11.30;99.90
22540;DHT22;11436;50.860;4.334;2022-11-25T16:16:18;11.20;99.90
22540;DHT22;11436;50.860;4.334;2022-11-25T16:29:18;11.10;99.90
22540;DHT22;11436;50.860;4.334;2022-11-25T16:31:44;11.00;99.90
22540;DHT22;11436;50.860;4.334;2022-11-25T16:34:16;11.00;99.90
22540;DHT22;11436;50.860;4.334;2022-11-25T16:36:42;11.00;99.90
22540;DHT22;11436;50.860;4.334;2022-11-25T16:39:08;11.00;99.90
22540;DHT22;11436;50.860;4.334;2022-11-25T16:41:34;10.90;99.90
22540;DHT22;11436;50.860;4.334;2022-11-25T16:44:00;10.90;99.90
22540;DHT22;11436;50.860;4.334;2022-11-25T16:46:28;10.80;99.90
22540;DHT22;11436;50.860;4.334;2022-11-25T16:48:54;10.80;99.90
22540;DHT22;11436;50.860;4.334;2022-11-25T16:51:22;10.80;99.90
22540;DHT22;11436;50.860;4.334;2022-11-25T16:53:50;10.70;99.90
22540;DHT22;11436;50.860;4.334;2022-11-25T16:56:22;10.70;99.90
22540;DHT22;11436;50.860;4.334;2022-11-25T16:58:49;10.70;99.90
22540;DHT22;11436;50.860;4.334;2022-11-25T17:01:16;10.70;99.90
22540;DHT22;11436;50.860;4.334;2022-11-25T17:03:42;10.70;99.90
22540;DHT22;11436;50.860;4.334;2022-11-25T17:06:16;10.70;99.90
22540;DHT22;11436;50.860;4.334;2022-11-25T17:08:43;10.70;99.90
22540;DHT22;11436;50.860;4.334;2022-11-25T17:11:20;10.60;99.90
22540;DHT22;11436;50.860;4.334;2022-11-25T17:13:50;10.60;99.90
22540;DHT22;11436;50.860;4.334;2022-11-25T17:16:22;10.60;99.90
22540;DHT22;11436;50.860;4.334;2022-11-25T17:18:49;10.60;99.90
22540;DHT22;11436;50.860;4.334;2022-11-25T17:21:16;10.50;99.90
22540;DHT22;11436;50.860;4.334;2022-11-25T17:23:43;10.50;99.90
22540;DHT22;11436;50.860;4.334;2022-11-25T17:26:20;10.50;99.90
22540;DHT22;11436;50.860;4.334;2022-11-25T17:28:57;10.40;99.90
22540;DHT22;11436;50.860;4.334;2022-11-25T17:31:27;10.50;99.90
22540;DHT22;11436;50.860;4.334;2022-11-25T17:33:54;10.40;99.90
22540;DHT22;11436;50.860;4.334;2022-11-25T17:36:20;10.40;99.90
22540;DHT22;11436;50.860;4.334;2022-11-25T17:38:46;10.30;99.90
22540;DHT22;11436;50.860;4.334;2022-11-25T17:41:14;10.10;99.90
22540;DHT22;11436;50.860;4.334;2022-11-25T17:43:41;10.10;99.90
22540;DHT22;11436;50.860;4.334;2022-11-25T17:46:11;10.00;99.90
22540;DHT22;11436;50.860;4.334;2022-11-25T17:48:38;9.90;99.90
22540;DHT22;11436;50.860;4.334;2022-11-25T17:51:07;9.90;99.90
22540;DHT22;11436;50.860;4.334;2022-11-25T17:53:34;10.10;99.90
22540;DHT22;11436;50.860;4.334;2022-11-25T17:56:24;10.30;99.90
22540;DHT22;11436;50.860;4.334;2022-11-25T17:58:51;10.40;99.90
22540;DHT22;11436;50.860;4.334;2022-11-25T18:01:17;10.30;99.90
22540;DHT22;11436;50.860;4.334;2022-11-25T18:03:43;10.30;99.90
22540;DHT22;11436;50.860;4.334;2022-11-25T18:06:09;10.40;99.90
22540;DHT22;11436;50.860;4.334;2022-11-25T18:08:34;10.40;99.90
22540;DHT22;11436;50.860;4.334;2022-11-25T18:11:02;10.40;99.90
22540;DHT22;11436;50.860;4.334;2022-11-25T18:13:34;10.30;99.90
22540;DHT22;11436;50.860;4.334;2022-11-25T18:16:00;10.30;99.90
22540;DHT22;11436;50.860;4.334;2022-11-25T18:18:26;10.30;99.90
22540;DHT22;11436;50.860;4.334;2022-11-25T18:20:52;10.10;99.90
22540;DHT22;11436;50.860;4.334;2022-11-25T18:23:38;10.20;99.90
22540;DHT22;11436;50.860;4.334;2022-11-25T18:26:04;10.00;99.90
22540;DHT22;11436;50.860;4.334;2022-11-25T18:28:31;10.00;99.90
22540;DHT22;11436;50.860;4.334;2022-11-25T18:31:01;10.00;99.90